Ana Sayfa
METAR-TAF:

METAR-TAF

Havaalanları :

St. George, Alaska, Amerika Birleşik Devletleri

Enlem: 56-34-43N, Boylam: 169-39-41W, yükseklik: 38 m

Güncel hava durumu gözlemi

Rapor saat 14:53 UTC de 35 dakika önce yapıldı.
Rüzgar güney/güneybatıdan 15 kt
Sıcaklık 2°C
Nem 80%
Basınç 1023 hPa
Görüş mesafesi: 16.1 km
4500 ft yükseklikte parçalı bulutlu

METAR: PAPB 021453Z AUTO 21015KT 10SM SCT045 02/M01 A3021 RMK AO2 SLP220 T00171011 56009 TSNO $

Saat: 07:28 (15:28 UTC)


TAF: eksik

4.000'den fazla havaalanı için hava durumu gözlemleri ve tahminleri (METAR ve TAF raporları).

Kullanılabilir istasyonlar harita üzerinde sarı ve kırmızı noktalarla gösterilir.

İstasyonun adını görmek için fareyi noktanın üzerinde gezdirin.

Sonrasında hava gözlem ve tahminlerini görmek için tıklayın.

Haritayı değiştirmek için: yaklaştırmak için siyah artı işaretli yeşil düğmeye ve uzaklaştırmak için de eksi işaretli düğmeye hızla tıklayın; bitişik haritalar için yeşil okları kullanın.


METAR-TAF: